Flight Track Log - Related Links

Times and Time Zones

All times are in EDT time to prevent confusion due to time zone crossing. See the ANA384 flight status page for this flight to view local times or setup timezone preferences in your user account.

Time Position Orientation Groundspeed Altitude Reporting Facility
EDT Latitude Longitude Course Direction KTS MPH feet Rate Location/Type
Tue 01:14:00 AM 26.9480 128.1064 29° Northeast  Level Estimated
Tue 01:15:00 AM 27.0420 128.1644 29° Northeast  Level Estimated
Tue 01:16:00 AM 27.1359 128.2224 29° Northeast  Level Estimated
Tue 01:17:00 AM 27.2297 128.2806 29° Northeast  Level Estimated
Tue 01:18:00 AM 27.3236 128.3389 29° Northeast  Level Estimated
Tue 01:19:00 AM 27.4174 128.3973 29° Northeast  Level Estimated
Tue 01:20:00 AM 27.5112 128.4558 29° Northeast  Level Estimated
Tue 01:21:00 AM 27.6050 128.5144 29° Northeast  Level Estimated
Tue 01:22:00 AM 27.6987 128.5730 29° Northeast  Level Estimated
Tue 01:23:00 AM 27.7925 128.6318 29° Northeast  Level Estimated
Tue 01:24:00 AM 27.8862 128.6907 29° Northeast  Level Estimated
Tue 01:25:00 AM 27.9798 128.7497 29° Northeast  Level Estimated
Tue 01:26:00 AM 28.0735 128.8088 29° Northeast  Level Estimated
Tue 01:27:00 AM 28.1671 128.8680 29° Northeast  Level Estimated
Tue 01:28:00 AM 28.2607 128.9273 29° Northeast  Level Estimated
Tue 01:29:00 AM 28.3543 128.9867 29° Northeast  Level Estimated
Tue 01:30:00 AM 28.4478 129.0462 29° Northeast  Level Estimated
Tue 01:31:00 AM 28.5414 129.1058 29° Northeast  Level Estimated
Tue 01:32:00 AM 28.6349 129.1655 29° Northeast  Level Estimated
Tue 01:33:00 AM 28.7283 129.2253 29° Northeast  Level Estimated
Tue 01:34:00 AM 28.8218 129.2853 29° Northeast  Level Estimated
Tue 01:35:00 AM 28.9152 129.3453 29° Northeast  Level Estimated
Tue 01:36:00 AM 29.0086 129.4055 29° Northeast  Level Estimated
Tue 01:37:00 AM 29.1020 129.4657 29° Northeast  Level Estimated
Tue 01:38:00 AM 29.1953 129.5261 29° Northeast  Level Estimated
Tue 01:39:00 AM 29.2886 129.5865 29° Northeast  Level Estimated
Tue 01:40:00 AM 29.3819 129.6471 30° Northeast  Level Estimated
Tue 01:41:00 AM 29.4752 129.7078 30° Northeast  Level Estimated
Tue 01:42:00 AM 29.5684 129.7686 30° Northeast  Level Estimated
Tue 01:43:00 AM 29.6616 129.8296 30° Northeast  Level Estimated
Tue 01:44:00 AM 29.7548 129.8906 30° Northeast  Level Estimated
Tue 01:45:00 AM 29.8479 129.9518 30° Northeast  Level Estimated
Tue 01:46:00 AM 29.9410 130.0130 30° Northeast  Level Estimated
Tue 01:47:00 AM 30.0341 130.0744 30° Northeast  Level Estimated
Tue 01:48:00 AM 30.1272 130.1359 30° Northeast  Level Estimated
Tue 01:49:00 AM 30.2202 130.1975 30° Northeast  Level Estimated
Tue 01:50:00 AM 30.3132 130.2592 30° Northeast  Level Estimated
Tue 01:51:00 AM 30.4062 130.3210 30° Northeast  Level Estimated
Tue 01:52:00 AM 30.4991 130.3830 30° Northeast  Level Estimated
Tue 01:53:00 AM 30.5920 130.4451 30° Northeast  Level Estimated
Tue 01:54:00 AM 30.6849 130.5073 30° Northeast  Level Estimated
Tue 01:55:00 AM 30.7778 130.5696 30° Northeast  Level Estimated
Tue 01:56:00 AM 30.8706 130.6320 30° Northeast  Level Estimated
Tue 01:57:00 AM 30.9634 130.6946 30° Northeast  Level Estimated
Tue 01:58:00 AM 31.0562 130.7573 30° Northeast  Level Estimated
Tue 01:59:00 AM 31.1489 130.8201 30° Northeast  Level Estimated
Tue 02:00:00 AM 31.2416 130.8830 30° Northeast  Level Estimated
Tue 02:01:00 AM 31.3343 130.9461 30° Northeast  Level Estimated
Tue 02:02:00 AM 31.4270 131.0092 30° Northeast  Level Estimated
Tue 02:03:00 AM 31.5196 131.0725 30° Northeast  Level Estimated
Tue 02:04:00 AM 31.6121 131.1360 30° Northeast  Level Estimated
Tue 02:05:00 AM 31.7047 131.1995 30° Northeast  Level Estimated
Tue 02:06:00 AM 31.7972 131.2632 30° Northeast  Level Estimated
Tue 02:07:00 AM 31.8897 131.3270 30° Northeast  Level Estimated
Tue 02:08:00 AM 31.9821 131.3909 30° Northeast  Level Estimated
Tue 02:09:00 AM 32.0746 131.4550 30° Northeast  Level Estimated
Tue 02:10:00 AM 32.1670 131.5192 30° Northeast  Level Estimated
Tue 02:10:27 AM 32.6560 131.4040 30° Northeast 447 514 31,700  Level FlightAware ADS-B
Tue 02:11:00 AM 32.2593 131.5835 30° Northeast  Level Estimated
Tue 02:11:12 AM 32.7240 131.4800 43° Northeast 442 509 29,700  Level FlightAware ADS-B
Tue 02:11:52 AM 32.7820 131.5450 43° Northeast 421 484 28,200 -1,958 Descending FlightAware ADS-B
Tue 02:12:47 AM 32.8590 131.6310 43° Northeast 398 458 26,600 -1,920 Descending FlightAware ADS-B
Tue 02:13:32 AM 32.9190 131.6990 44° Northeast 381 438 25,000 -1,341 Descending FlightAware ADS-B
Tue 02:14:12 AM 32.9710 131.7570 43° Northeast 381 438 24,700 -2,438 Descending FlightAware ADS-B
Tue 02:16:00 AM 33.1135 131.9121 42° Northeast  Level Estimated
Tue 02:17:00 AM 33.1927 131.9985 42° Northeast  Level Estimated
Tue 02:18:00 AM 33.2717 132.0851 42° Northeast  Level Estimated
Tue 02:18:52 AM 33.2950 132.1230 42° Northeast 326 375 12,000  Level FlightAware ADS-B
Tue 02:19:32 AM 33.3380 132.1720 44° Northeast 316 364 10,700 -1,412 Descending FlightAware ADS-B
Tue 02:20:17 AM 33.3820 132.2230 44° Northeast 281 323 10,000 -800 Descending FlightAware ADS-B
Tue 02:20:32 AM 33.3960 132.2390 44° Northeast 274 315 9,900 -300 Descending FlightAware ADS-B
Tue 02:20:57 AM 33.4160 132.2610 43° Northeast 270 311 9,800 -764 Descending FlightAware ADS-B
Tue 02:21:27 AM 33.4510 132.2850 30° Northeast 264 304 9,200 -1,091 Descending FlightAware ADS-B
Tue 02:21:52 AM 33.4780 132.2940 16° North 258 297 8,800 -873 Descending FlightAware ADS-B
Tue 02:22:22 AM 33.5150 132.3050 14° North 256 295 8,400 -1,300 Descending FlightAware ADS-B
Tue 02:22:52 AM 33.5500 132.3160 15° North 261 300 7,500 -1,636 Descending FlightAware ADS-B
Tue 02:23:17 AM 33.5790 132.3240 13° North 258 297 6,900 -1,371 Descending FlightAware ADS-B
Tue 02:23:27 AM 33.5890 132.3270 14° North 257 296 6,700 -1,067 Descending FlightAware ADS-B
Tue 02:24:02 AM 33.6290 132.3400 15° North 244 281 6,100 -640 Descending FlightAware ADS-B
Tue 02:24:42 AM 33.6700 132.3520 14° North 244 281 5,900 -300 Descending FlightAware ADS-B
Tue 02:25:22 AM 33.7060 132.3640 15° North 189 217 5,700 -600 Descending FlightAware ADS-B
Tue 02:25:52 AM 33.7310 132.3750 20° North 188 216 5,200 -1,000 Descending FlightAware ADS-B
Tue 02:28:00 AM 33.8079 132.6341 70° East  Level Estimated
Tue 02:29:00 AM 33.8272 132.6997 70° East  Level Estimated
Tue 02:30:00 AM 33.8272 132.6997 40° Northeast  Level Estimated
Tue 02:31:00 AM 33.8272 132.6997 40° Northeast  Level Estimated
Tue 02:32:00 AM 33.8272 132.6997 40° Northeast  Level Estimated
Tue 02:33:00 AM 33.8272 132.6997 40° Northeast  Level Estimated
Tue 02:34:00 AM 33.8272 132.6997 40° Northeast  Level Estimated
Tue 02:35:00 AM 33.8272 132.6997 40° Northeast  Level Estimated
Tue 02:36:00 AM 33.8272 132.6997 40° Northeast  Level Estimated
Tue 02:37:00 AM 33.8272 132.6997 40° Northeast  Level Estimated
Tue 02:38:00 AM 33.8272 132.6997 40° Northeast  Level Estimated

Login

Don't have an account? Register now (free) for customized features, flight alerts, and more!